sensor_id;sensor_type;location;lat;lon;timestamp;pressure;altitude;pressure_sealevel;temperature;humidity
45255;BME280;30989;52.078;21.014;2022-09-29T00:00:36;165678.66;;;7.35;100.00
45255;BME280;30989;52.078;21.014;2022-09-29T00:03:01;165698.69;;;7.42;100.00
45255;BME280;30989;52.078;21.014;2022-09-29T00:05:27;165690.69;;;7.39;100.00
45255;BME280;30989;52.078;21.014;2022-09-29T00:07:52;165692.00;;;7.40;100.00
45255;BME280;30989;52.078;21.014;2022-09-29T00:10:18;165709.38;;;7.47;100.00
45255;BME280;30989;52.078;21.014;2022-09-29T00:12:43;165706.72;;;7.46;100.00
45255;BME280;30989;52.078;21.014;2022-09-29T00:15:09;165712.06;;;7.48;100.00
45255;BME280;30989;52.078;21.014;2022-09-29T00:17:35;165704.06;;;7.44;100.00
45255;BME280;30989;52.078;21.014;2022-09-29T00:20:00;165709.38;;;7.47;100.00
45255;BME280;30989;52.078;21.014;2022-09-29T00:22:26;165701.38;;;7.43;100.00
45255;BME280;30989;52.078;21.014;2022-09-29T00:24:51;165708.06;;;7.46;100.00
45255;BME280;30989;52.078;21.014;2022-09-29T00:27:18;165712.06;;;7.48;100.00
45255;BME280;30989;52.078;21.014;2022-09-29T00:29:43;165722.75;;;7.52;100.00
45255;BME280;30989;52.078;21.014;2022-09-29T00:32:09;165709.38;;;7.47;100.00
45255;BME280;30989;52.078;21.014;2022-09-29T00:34:35;165724.09;;;7.52;100.00
45255;BME280;30989;52.078;21.014;2022-09-29T00:37:00;165728.09;;;7.54;100.00
45255;BME280;30989;52.078;21.014;2022-09-29T00:39:26;165720.09;;;7.51;100.00
45255;BME280;30989;52.078;21.014;2022-09-29T00:41:51;165726.78;;;7.53;100.00
45255;BME280;30989;52.078;21.014;2022-09-29T00:46:50;165728.09;;;7.54;100.00
45255;BME280;30989;52.078;21.014;2022-09-29T00:49:33;165729.44;;;7.54;100.00
45255;BME280;30989;52.078;21.014;2022-09-29T00:52:07;165728.09;;;7.54;100.00
45255;BME280;30989;52.078;21.014;2022-09-29T00:54:43;165725.44;;;7.53;100.00
45255;BME280;30989;52.078;21.014;2022-09-29T00:57:11;165726.78;;;7.53;100.00
45255;BME280;30989;52.078;21.014;2022-09-29T00:59:49;165732.13;;;7.55;100.00
45255;BME280;30989;52.078;21.014;2022-09-29T01:02:16;165730.78;;;7.55;100.00
45255;BME280;30989;52.078;21.014;2022-09-29T01:04:46;165728.09;;;7.54;100.00
45255;BME280;30989;52.078;21.014;2022-09-29T01:07:13;165724.09;;;7.52;100.00
45255;BME280;30989;52.078;21.014;2022-09-29T01:09:40;165718.75;;;7.50;100.00
45255;BME280;30989;52.078;21.014;2022-09-29T01:12:07;165708.06;;;7.46;100.00
45255;BME280;30989;52.078;21.014;2022-09-29T01:14:34;165710.72;;;7.47;100.00
45255;BME280;30989;52.078;21.014;2022-09-29T01:17:02;165718.75;;;7.50;100.00
45255;BME280;30989;52.078;21.014;2022-09-29T01:19:54;165722.75;;;7.52;100.00
45255;BME280;30989;52.078;21.014;2022-09-29T01:28:25;165714.75;;;7.49;100.00
45255;BME280;30989;52.078;21.014;2022-09-29T01:33:35;165696.03;;;7.41;100.00
45255;BME280;30989;52.078;21.014;2022-09-29T01:41:35;165696.03;;;7.41;100.00
45255;BME280;30989;52.078;21.014;2022-09-29T01:46:36;165682.66;;;7.36;100.00
45255;BME280;30989;52.078;21.014;2022-09-29T01:49:03;165671.97;;;7.32;100.00
45255;BME280;30989;52.078;21.014;2022-09-29T01:51:42;165675.97;;;7.34;100.00
45255;BME280;30989;52.078;21.014;2022-09-29T01:54:13;165658.59;;;7.27;100.00
45255;BME280;30989;52.078;21.014;2022-09-29T01:56:55;165669.28;;;7.31;100.00
45255;BME280;30989;52.078;21.014;2022-09-29T01:59:35;165671.97;;;7.32;100.00
45255;BME280;30989;52.078;21.014;2022-09-29T02:02:08;165663.94;;;7.29;100.00
45255;BME280;30989;52.078;21.014;2022-09-29T02:04:41;165669.28;;;7.31;100.00
45255;BME280;30989;52.078;21.014;2022-09-29T02:07:30;165673.31;;;7.33;100.00
45255;BME280;30989;52.078;21.014;2022-09-29T02:10:06;165655.94;;;7.26;100.00
45255;BME280;30989;52.078;21.014;2022-09-29T02:12:36;165666.63;;;7.30;100.00
45255;BME280;30989;52.078;21.014;2022-09-29T02:15:05;165650.59;;;7.24;100.00
45255;BME280;30989;52.078;21.014;2022-09-29T02:17:36;165665.28;;;7.30;100.00
45255;BME280;30989;52.078;21.014;2022-09-29T02:20:04;165653.25;;;7.25;100.00
45255;BME280;30989;52.078;21.014;2022-09-29T02:22:30;165665.28;;;7.30;100.00
45255;BME280;30989;52.078;21.014;2022-09-29T02:24:58;165666.63;;;7.30;100.00
45255;BME280;30989;52.078;21.014;2022-09-29T02:27:26;165665.28;;;7.30;100.00
45255;BME280;30989;52.078;21.014;2022-09-29T02:29:54;165659.94;;;7.28;100.00
45255;BME280;30989;52.078;21.014;2022-09-29T02:32:20;165657.25;;;7.27;100.00
45255;BME280;30989;52.078;21.014;2022-09-29T02:34:49;165657.25;;;7.27;100.00
45255;BME280;30989;52.078;21.014;2022-09-29T02:40:03;165661.28;;;7.28;100.00
45255;BME280;30989;52.078;21.014;2022-09-29T02:45:48;165653.25;;;7.25;100.00
45255;BME280;30989;52.078;21.014;2022-09-29T02:51:30;165638.56;;;7.20;100.00
45255;BME280;30989;52.078;21.014;2022-09-29T02:56:54;165621.19;;;7.13;100.00
45255;BME280;30989;52.078;21.014;2022-09-29T02:59:31;165614.50;;;7.10;100.00
45255;BME280;30989;52.078;21.014;2022-09-29T03:02:00;165593.13;;;7.02;100.00
45255;BME280;30989;52.078;21.014;2022-09-29T03:04:26;165599.81;;;7.05;100.00
45255;BME280;30989;52.078;21.014;2022-09-29T03:06:53;165591.78;;;7.02;100.00
45255;BME280;30989;52.078;21.014;2022-09-29T03:09:20;165593.13;;;7.02;100.00
45255;BME280;30989;52.078;21.014;2022-09-29T03:11:45;165583.78;;;6.99;100.00
45255;BME280;30989;52.078;21.014;2022-09-29T03:14:11;165586.44;;;7.00;100.00
45255;BME280;30989;52.078;21.014;2022-09-29T03:16:37;165567.72;;;6.93;100.00
45255;BME280;30989;52.078;21.014;2022-09-29T03:19:04;165586.44;;;7.00;100.00
45255;BME280;30989;52.078;21.014;2022-09-29T03:21:30;165581.09;;;6.98;100.00
45255;BME280;30989;52.078;21.014;2022-09-29T03:23:55;165586.44;;;7.00;100.00
45255;BME280;30989;52.078;21.014;2022-09-29T03:26:22;165566.41;;;6.92;100.00
45255;BME280;30989;52.078;21.014;2022-09-29T03:28:49;165591.78;;;7.02;100.00
45255;BME280;30989;52.078;21.014;2022-09-29T03:31:14;165594.47;;;7.03;100.00
45255;BME280;30989;52.078;21.014;2022-09-29T03:33:40;165583.78;;;6.99;100.00
45255;BME280;30989;52.078;21.014;2022-09-29T03:36:06;165595.78;;;7.03;100.00
45255;BME280;30989;52.078;21.014;2022-09-29T03:38:33;165577.09;;;6.96;100.00
45255;BME280;30989;52.078;21.014;2022-09-29T03:40:59;165598.47;;;7.04;100.00
45255;BME280;30989;52.078;21.014;2022-09-29T03:43:24;165597.13;;;7.04;100.00
45255;BME280;30989;52.078;21.014;2022-09-29T03:45:51;165602.47;;;7.06;100.00
45255;BME280;30989;52.078;21.014;2022-09-29T03:48:18;165583.78;;;6.99;100.00
45255;BME280;30989;52.078;21.014;2022-09-29T03:50:44;165607.81;;;7.08;100.00
45255;BME280;30989;52.078;21.014;2022-09-29T03:53:11;165605.16;;;7.07;100.00
45255;BME280;30989;52.078;21.014;2022-09-29T03:55:37;165598.47;;;7.04;100.00
45255;BME280;30989;52.078;21.014;2022-09-29T03:58:03;165574.41;;;6.95;100.00
45255;BME280;30989;52.078;21.014;2022-09-29T04:00:31;165591.78;;;7.02;100.00
45255;BME280;30989;52.078;21.014;2022-09-29T04:02:57;165589.13;;;7.01;100.00
45255;BME280;30989;52.078;21.014;2022-09-29T04:05:23;165574.41;;;6.95;100.00
45255;BME280;30989;52.078;21.014;2022-09-29T04:07:48;165578.44;;;6.97;100.00
45255;BME280;30989;52.078;21.014;2022-09-29T04:10:14;165575.75;;;6.96;100.00
45255;BME280;30989;52.078;21.014;2022-09-29T04:12:40;165567.72;;;6.93;100.00
45255;BME280;30989;52.078;21.014;2022-09-29T04:15:06;165581.09;;;6.98;100.00
45255;BME280;30989;52.078;21.014;2022-09-29T04:17:32;165566.41;;;6.92;100.00
45255;BME280;30989;52.078;21.014;2022-09-29T04:19:57;165573.09;;;6.95;100.00
45255;BME280;30989;52.078;21.014;2022-09-29T04:22:23;165563.72;;;6.91;100.00
45255;BME280;30989;52.078;21.014;2022-09-29T04:24:48;165562.38;;;6.91;100.00
45255;BME280;30989;52.078;21.014;2022-09-29T04:27:15;165555.72;;;6.88;100.00
45255;BME280;30989;52.078;21.014;2022-09-29T04:29:41;165551.69;;;6.87;100.00
45255;BME280;30989;52.078;21.014;2022-09-29T04:32:06;165537.00;;;6.81;100.00
45255;BME280;30989;52.078;21.014;2022-09-29T04:34:33;165549.03;;;6.86;100.00
45255;BME280;30989;52.078;21.014;2022-09-29T04:36:59;165547.69;;;6.85;100.00
45255;BME280;30989;52.078;21.014;2022-09-29T04:39:24;165542.34;;;6.83;100.00
45255;BME280;30989;52.078;21.014;2022-09-29T04:41:50;165524.97;;;6.76;100.00
45255;BME280;30989;52.078;21.014;2022-09-29T04:44:15;165514.28;;;6.72;100.00
45255;BME280;30989;52.078;21.014;2022-09-29T04:46:41;165529.00;;;6.78;100.00
45255;BME280;30989;52.078;21.014;2022-09-29T04:49:06;165516.97;;;6.73;100.00
45255;BME280;30989;52.078;21.014;2022-09-29T04:51:32;165533.00;;;6.79;100.00
45255;BME280;30989;52.078;21.014;2022-09-29T04:53:58;165533.00;;;6.79;100.00
45255;BME280;30989;52.078;21.014;2022-09-29T04:56:23;165535.66;;;6.81;100.00
45255;BME280;30989;52.078;21.014;2022-09-29T04:58:50;165518.31;;;6.74;100.00
45255;BME280;30989;52.078;21.014;2022-09-29T05:01:15;165519.63;;;6.74;100.00
45255;BME280;30989;52.078;21.014;2022-09-29T05:03:41;165533.00;;;6.79;100.00
45255;BME280;30989;52.078;21.014;2022-09-29T05:06:07;165541.00;;;6.83;100.00
45255;BME280;30989;52.078;21.014;2022-09-29T05:08:34;165547.69;;;6.85;100.00
45255;BME280;30989;52.078;21.014;2022-09-29T05:11:07;165550.38;;;6.86;100.00
45255;BME280;30989;52.078;21.014;2022-09-29T05:13:33;165554.38;;;6.88;100.00
45255;BME280;30989;52.078;21.014;2022-09-29T05:15:59;165559.72;;;6.90;100.00
45255;BME280;30989;52.078;21.014;2022-09-29T05:18:26;165550.38;;;6.86;100.00
45255;BME280;30989;52.078;21.014;2022-09-29T05:20:52;165557.03;;;6.89;100.00
45255;BME280;30989;52.078;21.014;2022-09-29T05:23:17;165551.69;;;6.87;100.00
45255;BME280;30989;52.078;21.014;2022-09-29T05:25:43;165557.03;;;6.89;100.00
45255;BME280;30989;52.078;21.014;2022-09-29T05:28:09;165570.41;;;6.94;100.00
45255;BME280;30989;52.078;21.014;2022-09-29T05:30:36;165577.09;;;6.96;100.00
45255;BME280;30989;52.078;21.014;2022-09-29T05:33:01;165581.09;;;6.98;100.00
45255;BME280;30989;52.078;21.014;2022-09-29T05:35:27;165597.13;;;7.04;100.00
45255;BME280;30989;52.078;21.014;2022-09-29T05:37:52;165594.47;;;7.03;100.00
45255;BME280;30989;52.078;21.014;2022-09-29T05:40:18;165605.16;;;7.07;100.00
45255;BME280;30989;52.078;21.014;2022-09-29T05:42:44;165606.50;;;7.07;100.00
45255;BME280;30989;52.078;21.014;2022-09-29T05:45:10;165615.84;;;7.11;100.00
45255;BME280;30989;52.078;21.014;2022-09-29T05:47:40;165626.53;;;7.15;100.00
45255;BME280;30989;52.078;21.014;2022-09-29T05:50:07;165623.84;;;7.14;100.00
45255;BME280;30989;52.078;21.014;2022-09-29T05:52:32;165626.53;;;7.15;100.00
45255;BME280;30989;52.078;21.014;2022-09-29T05:54:58;165642.56;;;7.21;100.00
45255;BME280;30989;52.078;21.014;2022-09-29T05:57:24;165653.25;;;7.25;100.00
45255;BME280;30989;52.078;21.014;2022-09-29T05:59:49;165666.63;;;7.30;100.00
45255;BME280;30989;52.078;21.014;2022-09-29T06:02:14;165677.31;;;7.34;100.00
45255;BME280;30989;52.078;21.014;2022-09-29T06:04:41;165693.34;;;7.40;100.00
45255;BME280;30989;52.078;21.014;2022-09-29T06:07:06;165700.03;;;7.43;100.00
45255;BME280;30989;52.078;21.014;2022-09-29T06:09:33;165701.38;;;7.43;100.00
45255;BME280;30989;52.078;21.014;2022-09-29T06:12:01;165709.38;;;7.47;100.00
45255;BME280;30989;52.078;21.014;2022-09-29T06:14:26;165718.75;;;7.50;100.00
45255;BME280;30989;52.078;21.014;2022-09-29T06:16:51;165736.13;;;7.57;100.00
45255;BME280;30989;52.078;21.014;2022-09-29T06:19:18;165746.81;;;7.61;100.00
45255;BME280;30989;52.078;21.014;2022-09-29T06:21:43;165757.50;;;7.65;100.00
45255;BME280;30989;52.078;21.014;2022-09-29T06:24:09;165766.88;;;7.68;100.00
45255;BME280;30989;52.078;21.014;2022-09-29T06:26:34;165778.91;;;7.73;100.00
45255;BME280;30989;52.078;21.014;2022-09-29T06:29:00;165789.59;;;7.77;100.00
45255;BME280;30989;52.078;21.014;2022-09-29T06:31:27;165801.63;;;7.82;100.00
45255;BME280;30989;52.078;21.014;2022-09-29T06:34:02;165823.03;;;7.90;100.00
45255;BME280;30989;52.078;21.014;2022-09-29T06:36:31;165828.38;;;7.92;100.00
45255;BME280;30989;52.078;21.014;2022-09-29T06:39:17;165827.03;;;7.91;100.00
45255;BME280;30989;52.078;21.014;2022-09-29T06:41:43;165839.06;;;7.96;100.00
45255;BME280;30989;52.078;21.014;2022-09-29T06:44:15;165853.78;;;8.01;100.00
45255;BME280;30989;52.078;21.014;2022-09-29T06:46:41;165829.72;;;7.92;100.00
45255;BME280;30989;52.078;21.014;2022-09-29T06:49:07;165802.97;;;7.82;100.00
45255;BME280;30989;52.078;21.014;2022-09-29T06:51:34;165797.63;;;7.80;100.00
45255;BME280;30989;52.078;21.014;2022-09-29T06:53:59;165798.97;;;7.81;100.00
45255;BME280;30989;52.078;21.014;2022-09-29T06:56:25;165801.63;;;7.82;100.00
45255;BME280;30989;52.078;21.014;2022-09-29T06:58:50;165805.63;;;7.83;100.00
45255;BME280;30989;52.078;21.014;2022-09-29T07:01:16;165802.97;;;7.82;100.00
45255;BME280;30989;52.078;21.014;2022-09-29T07:03:41;165813.66;;;7.86;100.00
45255;BME280;30989;52.078;21.014;2022-09-29T07:06:09;165824.38;;;7.90;100.00
45255;BME280;30989;52.078;21.014;2022-09-29T07:08:35;165823.03;;;7.90;100.00
45255;BME280;30989;52.078;21.014;2022-09-29T07:11:02;165832.38;;;7.93;100.00
45255;BME280;30989;52.078;21.014;2022-09-29T07:13:28;165828.38;;;7.92;100.00
45255;BME280;30989;52.078;21.014;2022-09-29T07:15:54;165805.63;;;7.83;100.00
45255;BME280;30989;52.078;21.014;2022-09-29T07:18:20;165816.34;;;7.87;100.00
45255;BME280;30989;52.078;21.014;2022-09-29T07:20:46;165815.00;;;7.87;100.00
45255;BME280;30989;52.078;21.014;2022-09-29T07:23:11;165845.75;;;7.98;100.00
45255;BME280;30989;52.078;21.014;2022-09-29T07:25:38;165884.53;;;8.13;100.00
45255;BME280;30989;52.078;21.014;2022-09-29T07:28:03;165912.63;;;8.24;100.00
45255;BME280;30989;52.078;21.014;2022-09-29T07:30:29;165950.09;;;8.38;100.00
45255;BME280;30989;52.078;21.014;2022-09-29T07:32:56;165966.16;;;8.44;100.00
45255;BME280;30989;52.078;21.014;2022-09-29T07:35:21;165968.84;;;8.45;100.00
45255;BME280;30989;52.078;21.014;2022-09-29T07:37:51;165984.88;;;8.51;100.00
45255;BME280;30989;52.078;21.014;2022-09-29T07:40:17;166021.00;;;8.65;100.00
45255;BME280;30989;52.078;21.014;2022-09-29T07:42:43;166057.13;;;8.79;100.00
45255;BME280;30989;52.078;21.014;2022-09-29T07:45:09;166090.56;;;8.91;100.00
45255;BME280;30989;52.078;21.014;2022-09-29T07:47:34;166133.38;;;9.08;100.00
45255;BME280;30989;52.078;21.014;2022-09-29T07:50:00;166148.09;;;9.13;100.00
45255;BME280;30989;52.078;21.014;2022-09-29T07:52:25;166156.13;;;9.16;100.00
45255;BME280;30989;52.078;21.014;2022-09-29T07:54:51;166168.16;;;9.21;100.00
45255;BME280;30989;52.078;21.014;2022-09-29T07:57:16;166198.94;;;9.32;100.00
45255;BME280;30989;52.078;21.014;2022-09-29T07:59:41;166205.63;;;9.35;100.00
45255;BME280;30989;52.078;21.014;2022-09-29T08:02:08;166192.25;;;9.30;100.00
45255;BME280;30989;52.078;21.014;2022-09-29T08:04:33;166154.78;;;9.16;100.00
45255;BME280;30989;52.078;21.014;2022-09-29T08:06:59;166136.06;;;9.09;100.00
45255;BME280;30989;52.078;21.014;2022-09-29T08:09:24;166136.06;;;9.09;100.00
45255;BME280;30989;52.078;21.014;2022-09-29T08:11:50;166121.34;;;9.03;100.00
45255;BME280;30989;52.078;21.014;2022-09-29T08:14:16;166150.78;;;9.14;100.00
45255;BME280;30989;52.078;21.014;2022-09-29T08:16:41;166168.16;;;9.21;100.00
45255;BME280;30989;52.078;21.014;2022-09-29T08:19:06;166201.63;;;9.33;100.00
45255;BME280;30989;52.078;21.014;2022-09-29T08:21:32;166231.06;;;9.45;100.00
45255;BME280;30989;52.078;21.014;2022-09-29T08:24:01;166253.81;;;9.53;100.00
45255;BME280;30989;52.078;21.014;2022-09-29T08:26:30;166269.88;;;9.59;100.00
45255;BME280;30989;52.078;21.014;2022-09-29T08:28:56;166245.78;;;9.50;100.00
45255;BME280;30989;52.078;21.014;2022-09-29T08:31:22;166277.91;;;9.62;100.00
45255;BME280;30989;52.078;21.014;2022-09-29T08:33:48;166284.59;;;9.65;100.00
45255;BME280;30989;52.078;21.014;2022-09-29T08:36:15;166287.28;;;9.66;100.00
45255;BME280;30989;52.078;21.014;2022-09-29T08:38:41;166292.63;;;9.68;100.00
45255;BME280;30989;52.078;21.014;2022-09-29T08:46:55;166295.31;;;9.69;100.00
45255;BME280;30989;52.078;21.014;2022-09-29T08:49:41;166289.97;;;9.67;100.00
45255;BME280;30989;52.078;21.014;2022-09-29T08:52:14;166302.00;;;9.72;100.00
45255;BME280;30989;52.078;21.014;2022-09-29T08:54:44;166330.13;;;9.82;100.00
45255;BME280;30989;52.078;21.014;2022-09-29T08:57:15;166343.50;;;9.87;100.00
45255;BME280;30989;52.078;21.014;2022-09-29T08:59:54;166383.66;;;10.02;100.00
45255;BME280;30989;52.078;21.014;2022-09-29T09:02:41;166390.38;;;10.05;100.00
45255;BME280;30989;52.078;21.014;2022-09-29T09:08:35;166435.94;;;10.22;100.00
45255;BME280;30989;52.078;21.014;2022-09-29T09:11:28;166437.28;;;10.23;100.00
45255;BME280;30989;52.078;21.014;2022-09-29T09:22:22;166442.63;;;10.25;96.67
45255;BME280;30989;52.078;21.014;2022-09-29T09:25:05;166421.16;;;10.17;95.33
45255;BME280;30989;52.078;21.014;2022-09-29T09:27:39;166423.84;;;10.18;99.84
45255;BME280;30989;52.078;21.014;2022-09-29T09:30:18;166461.38;;;10.32;97.57
45255;BME280;30989;52.078;21.014;2022-09-29T09:33:00;166480.13;;;10.39;98.61
45255;BME280;30989;52.078;21.014;2022-09-29T09:38:08;166472.09;;;10.36;97.64
45255;BME280;30989;52.078;21.014;2022-09-29T09:40:44;166509.66;;;10.50;98.61
45255;BME280;30989;52.078;21.014;2022-09-29T09:43:24;166547.16;;;10.64;97.56
45255;BME280;30989;52.078;21.014;2022-09-29T09:45:56;166590.00;;;10.81;95.54
45255;BME280;30989;52.078;21.014;2022-09-29T09:48:31;166611.44;;;10.89;97.38
45255;BME280;30989;52.078;21.014;2022-09-29T09:51:06;166658.34;;;11.07;97.14
45255;BME280;30989;52.078;21.014;2022-09-29T09:53:40;166687.81;;;11.18;95.67
45255;BME280;30989;52.078;21.014;2022-09-29T10:02:03;166791.00;;;11.57;94.17
45255;BME280;30989;52.078;21.014;2022-09-29T10:04:28;166791.00;;;11.57;92.56
45255;BME280;30989;52.078;21.014;2022-09-29T10:06:55;166789.66;;;11.56;94.16
45255;BME280;30989;52.078;21.014;2022-09-29T10:09:21;166799.03;;;11.60;93.02
45255;BME280;30989;52.078;21.014;2022-09-29T10:11:47;166819.13;;;11.68;93.83
45255;BME280;30989;52.078;21.014;2022-09-29T10:14:18;166850.00;;;11.79;93.15
45255;BME280;30989;52.078;21.014;2022-09-29T10:16:50;166862.06;;;11.84;93.57
45255;BME280;30989;52.078;21.014;2022-09-29T10:19:53;166876.81;;;11.89;92.68
45255;BME280;30989;52.078;21.014;2022-09-29T10:22:19;166886.19;;;11.93;92.20
45255;BME280;30989;52.078;21.014;2022-09-29T10:24:45;166900.94;;;11.99;91.97
45255;BME280;30989;52.078;21.014;2022-09-29T10:27:17;166915.69;;;12.04;91.71
45255;BME280;30989;52.078;21.014;2022-09-29T10:29:45;166943.84;;;12.15;90.17
45255;BME280;30989;52.078;21.014;2022-09-29T10:32:29;166959.94;;;12.21;91.55
45255;BME280;30989;52.078;21.014;2022-09-29T10:38:17;167013.56;;;12.41;90.76
45255;BME280;30989;52.078;21.014;2022-09-29T10:41:06;167037.69;;;12.50;89.75
45255;BME280;30989;52.078;21.014;2022-09-29T10:45:58;167077.94;;;12.66;89.18
45255;BME280;30989;52.078;21.014;2022-09-29T10:48:25;167142.31;;;12.90;87.81
45255;BME280;30989;52.078;21.014;2022-09-29T10:50:53;167204.00;;;13.13;86.57
45255;BME280;30989;52.078;21.014;2022-09-29T10:53:28;167330.19;;;13.61;88.09
45255;BME280;30989;52.078;21.014;2022-09-29T10:55:57;167448.28;;;14.06;81.98
45255;BME280;30989;52.078;21.014;2022-09-29T10:58:38;167542.25;;;14.41;82.09
45255;BME280;30989;52.078;21.014;2022-09-29T11:01:10;167547.66;;;14.43;80.06
45255;BME280;30989;52.078;21.014;2022-09-29T11:03:38;167523.44;;;14.34;82.22
45255;BME280;30989;52.078;21.014;2022-09-29T11:06:10;167539.56;;;14.40;82.53
45255;BME280;30989;52.078;21.014;2022-09-29T11:08:59;167565.13;;;14.50;82.06
45255;BME280;30989;52.078;21.014;2022-09-29T11:13:53;167596.00;;;14.62;81.17
45255;BME280;30989;52.078;21.014;2022-09-29T11:16:36;167542.25;;;14.41;79.66
45255;BME280;30989;52.078;21.014;2022-09-29T11:19:08;167472.44;;;14.15;80.21
45255;BME280;30989;52.078;21.014;2022-09-29T11:27:44;167468.41;;;14.13;80.07
45255;BME280;30989;52.078;21.014;2022-09-29T11:37:53;167361.03;;;13.73;80.30
45255;BME280;30989;52.078;21.014;2022-09-29T11:40:32;167322.13;;;13.58;81.94
45255;BME280;30989;52.078;21.014;2022-09-29T11:46:47;167421.44;;;13.96;82.94
45255;BME280;30989;52.078;21.014;2022-09-29T12:00:24;168833.13;;;19.29;70.18
45255;BME280;30989;52.078;21.014;2022-09-29T12:03:13;169040.56;;;20.07;67.81
45255;BME280;30989;52.078;21.014;2022-09-29T12:06:05;169024.41;;;20.01;65.01
45255;BME280;30989;52.078;21.014;2022-09-29T12:14:11;168430.75;;;17.77;64.92
45255;BME280;30989;52.078;21.014;2022-09-29T12:16:43;168246.44;;;17.07;66.47
45255;BME280;30989;52.078;21.014;2022-09-29T12:19:16;168077.03;;;16.43;67.00
45255;BME280;30989;52.078;21.014;2022-09-29T12:21:47;168000.41;;;16.15;68.56
45255;BME280;30989;52.078;21.014;2022-09-29T12:24:20;168007.13;;;16.17;68.57
45255;BME280;30989;52.078;21.014;2022-09-29T12:26:50;168133.53;;;16.65;68.82
45255;BME280;30989;52.078;21.014;2022-09-29T12:29:31;168294.84;;;17.26;66.64
45255;BME280;30989;52.078;21.014;2022-09-29T12:32:03;168288.13;;;17.23;65.39
45255;BME280;30989;52.078;21.014;2022-09-29T12:34:44;168320.41;;;17.35;65.83
45255;BME280;30989;52.078;21.014;2022-09-29T12:37:17;168472.44;;;17.93;64.54
45255;BME280;30989;52.078;21.014;2022-09-29T12:45:29;168216.88;;;16.96;64.90
45255;BME280;30989;52.078;21.014;2022-09-29T12:48:37;168200.75;;;16.90;64.30
45255;BME280;30989;52.078;21.014;2022-09-29T12:53:41;168171.16;;;16.79;66.01
45255;BME280;30989;52.078;21.014;2022-09-29T12:56:18;168351.34;;;17.47;64.29
45255;BME280;30989;52.078;21.014;2022-09-29T12:58:50;168561.25;;;18.26;65.30
45255;BME280;30989;52.078;21.014;2022-09-29T13:01:25;168795.47;;;19.15;62.73
45255;BME280;30989;52.078;21.014;2022-09-29T13:12:10;169496.13;;;21.79;55.48
45255;BME280;30989;52.078;21.014;2022-09-29T13:14:50;169413.91;;;21.48;53.15
45255;BME280;30989;52.078;21.014;2022-09-29T13:17:59;169221.09;;;20.75;53.65
45255;BME280;30989;52.078;21.014;2022-09-29T13:24:14;168636.59;;;18.55;57.63
45255;BME280;30989;52.078;21.014;2022-09-29T13:29:22;168187.28;;;16.85;60.35
45255;BME280;30989;52.078;21.014;2022-09-29T13:31:50;167999.06;;;16.14;61.38
45255;BME280;30989;52.078;21.014;2022-09-29T13:34:29;167934.56;;;15.90;62.74
45255;BME280;30989;52.078;21.014;2022-09-29T13:37:16;167986.97;;;16.09;63.01
45255;BME280;30989;52.078;21.014;2022-09-29T13:39:56;168082.41;;;16.46;61.75
45255;BME280;30989;52.078;21.014;2022-09-29T13:47:49;168512.81;;;18.08;60.44
45255;BME280;30989;52.078;21.014;2022-09-29T13:50:45;168760.47;;;19.02;61.09
45255;BME280;30989;52.078;21.014;2022-09-29T13:56:07;169256.19;;;20.88;56.56
45255;BME280;30989;52.078;21.014;2022-09-29T13:58:57;169342.41;;;21.21;54.16
45255;BME280;30989;52.078;21.014;2022-09-29T14:01:37;169385.59;;;21.37;54.49
45255;BME280;30989;52.078;21.014;2022-09-29T14:07:01;169285.81;;;21.00;52.72
45255;BME280;30989;52.078;21.014;2022-09-29T14:09:31;169102.50;;;20.31;52.93
45255;BME280;30989;52.078;21.014;2022-09-29T14:12:05;168834.50;;;19.29;53.61
45255;BME280;30989;52.078;21.014;2022-09-29T14:14:36;168576.03;;;18.32;54.70
45255;BME280;30989;52.078;21.014;2022-09-29T14:17:20;168355.38;;;17.49;55.91
45255;BME280;30989;52.078;21.014;2022-09-29T14:20:11;168227.63;;;17.00;57.40
45255;BME280;30989;52.078;21.014;2022-09-29T14:23:05;168238.38;;;17.04;59.22
45255;BME280;30989;52.078;21.014;2022-09-29T14:28:09;168468.41;;;17.91;58.04
45255;BME280;30989;52.078;21.014;2022-09-29T14:30:40;168555.84;;;18.24;57.11
45255;BME280;30989;52.078;21.014;2022-09-29T14:33:28;168648.69;;;18.59;56.84
45255;BME280;30989;52.078;21.014;2022-09-29T14:41:00;168712.00;;;18.83;55.32
45255;BME280;30989;52.078;21.014;2022-09-29T14:46:26;168637.94;;;18.55;55.44
45255;BME280;30989;52.078;21.014;2022-09-29T14:58:08;168566.63;;;18.28;56.59
45255;BME280;30989;52.078;21.014;2022-09-29T15:03:16;168534.31;;;18.16;55.98
45255;BME280;30989;52.078;21.014;2022-09-29T15:05:43;168502.03;;;18.04;56.49
45255;BME280;30989;52.078;21.014;2022-09-29T15:08:25;168418.63;;;17.73;56.00
45255;BME280;30989;52.078;21.014;2022-09-29T15:10:51;168300.25;;;17.28;56.74
45255;BME280;30989;52.078;21.014;2022-09-29T15:13:25;168089.13;;;16.48;57.87
45255;BME280;30989;52.078;21.014;2022-09-29T15:16:01;167894.25;;;15.74;59.57
45255;BME280;30989;52.078;21.014;2022-09-29T15:26:50;167187.91;;;13.07;65.62
45255;BME280;30989;52.078;21.014;2022-09-29T15:29:17;167094.03;;;12.72;66.89
45255;BME280;30989;52.078;21.014;2022-09-29T15:31:45;167009.53;;;12.40;67.71
45255;BME280;30989;52.078;21.014;2022-09-29T15:34:21;166938.50;;;12.13;69.45
45255;BME280;30989;52.078;21.014;2022-09-29T15:36:52;166887.53;;;11.93;71.21
45255;BME280;30989;52.078;21.014;2022-09-29T15:39:40;166813.78;;;11.66;71.59